createdAt,value
2023-06-11T00:00:49.298Z,3.40
2023-06-11T00:05:52.831Z,3.75
2023-06-11T00:10:56.706Z,3.80
2023-06-11T00:16:03.016Z,3.28
2023-06-11T00:21:16.813Z,3.72
2023-06-11T00:26:23.674Z,4.50
2023-06-11T00:31:28.186Z,3.85
2023-06-11T00:36:33.741Z,3.75
2023-06-11T00:41:40.245Z,3.60
2023-06-11T00:46:53.520Z,3.97
2023-06-11T00:51:55.290Z,4.53
2023-06-11T00:57:05.531Z,4.00
2023-06-11T01:02:38.782Z,3.70
2023-06-11T01:07:52.543Z,4.07
2023-06-11T01:13:33.176Z,3.90
2023-06-11T01:18:46.739Z,4.30
2023-06-11T01:24:08.679Z,4.18
2023-06-11T01:29:16.177Z,4.20
2023-06-11T01:34:21.653Z,4.05
2023-06-11T01:39:27.381Z,4.07
2023-06-11T01:44:38.992Z,4.47
2023-06-11T01:49:40.964Z,3.92
2023-06-11T01:54:47.177Z,4.10
2023-06-11T01:59:54.789Z,4.55
2023-06-11T02:04:56.354Z,4.20
2023-06-11T02:10:00.336Z,4.63
2023-06-11T02:15:08.292Z,4.43
2023-06-11T02:20:13.239Z,4.90
2023-06-11T02:25:15.177Z,4.32
2023-06-11T02:30:19.160Z,4.80
2023-06-11T02:35:28.619Z,4.60
2023-06-11T02:40:38.217Z,5.13
2023-06-11T02:45:45.841Z,5.15
2023-06-11T02:50:49.994Z,5.13
2023-06-11T02:55:53.784Z,4.95
2023-06-11T03:00:55.610Z,4.95
2023-06-11T03:06:08.869Z,5.40
2023-06-11T03:11:13.066Z,4.78
2023-06-11T03:16:21.782Z,4.85
2023-06-11T03:21:31.234Z,5.28
2023-06-11T03:26:33.094Z,5.13
2023-06-11T03:31:35.040Z,4.97
2023-06-11T03:36:39.052Z,5.47
2023-06-11T03:41:53.682Z,5.68
2023-06-11T03:47:06.584Z,5.28
2023-06-11T03:52:14.400Z,5.10
2023-06-11T03:57:22.281Z,4.63
2023-06-11T04:02:30.723Z,5.32
2023-06-11T04:07:44.499Z,5.60
2023-06-11T04:12:48.891Z,6.13
2023-06-11T04:17:54.020Z,5.50
2023-06-11T04:23:15.309Z,5.00
2023-06-11T04:28:18.239Z,5.68
2023-06-11T04:33:23.668Z,5.60
2023-06-11T04:38:26.873Z,5.82
2023-06-11T04:43:34.483Z,5.60
2023-06-11T04:48:46.758Z,5.63
2023-06-11T04:53:48.406Z,5.55
2023-06-11T04:58:55.244Z,5.55
2023-06-11T05:09:04.689Z,6.35
2023-06-11T05:14:08.188Z,6.22
2023-06-11T05:19:12.215Z,5.97
2023-06-11T05:24:21.194Z,6.65
2023-06-11T05:29:28.979Z,7.00
2023-06-11T05:34:35.488Z,6.95
2023-06-11T05:39:42.706Z,6.45
2023-06-11T05:44:44.774Z,7.50
2023-06-11T05:49:51.599Z,7.32
2023-06-11T05:54:57.078Z,7.07
2023-06-11T06:00:02.244Z,6.57
2023-06-11T06:05:08.447Z,7.53
2023-06-11T06:10:11.065Z,6.85
2023-06-11T06:15:17.778Z,7.20
2023-06-11T06:20:23.943Z,7.53
2023-06-11T06:25:30.157Z,6.88
2023-06-11T06:30:39.845Z,6.97
2023-06-11T06:35:44.936Z,7.00
2023-06-11T06:40:50.418Z,7.28
2023-06-11T06:45:52.043Z,7.28
2023-06-11T06:51:00.471Z,6.53
2023-06-11T06:56:03.138Z,6.75
2023-06-11T07:01:10.725Z,6.38
2023-06-11T07:06:19.533Z,5.93
2023-06-11T07:11:24.665Z,6.45
2023-06-11T07:16:32.452Z,5.95
2023-06-11T07:21:38.800Z,6.03
2023-06-11T07:26:42.997Z,5.65
2023-06-11T07:31:50.833Z,5.15
2023-06-11T07:36:55.718Z,5.63
2023-06-11T07:42:01.582Z,5.68
2023-06-11T07:47:03.678Z,5.60
2023-06-11T07:52:06.077Z,5.18
2023-06-11T07:57:12.366Z,4.97
2023-06-11T08:02:16.382Z,5.35
2023-06-11T08:07:30.546Z,5.03
2023-06-11T08:12:34.358Z,4.78
2023-06-11T08:17:37.110Z,4.50
2023-06-11T08:22:40.764Z,5.05
2023-06-11T08:27:47.132Z,4.47
2023-06-11T08:32:48.755Z,3.65
2023-06-11T08:37:58.529Z,4.13
2023-06-11T08:43:02.756Z,4.30
2023-06-11T08:48:10.978Z,4.75
2023-06-11T08:58:17.062Z,3.35
2023-06-11T09:03:23.337Z,3.70
2023-06-11T09:08:25.000Z,3.75
2023-06-11T09:13:31.382Z,3.60
2023-06-11T09:18:45.443Z,3.75
2023-06-11T09:23:49.082Z,4.10
2023-06-11T09:28:55.657Z,3.00
2023-06-11T09:34:07.140Z,3.17
2023-06-11T09:39:17.872Z,3.45
2023-06-11T09:44:20.433Z,2.90
2023-06-11T09:49:23.772Z,3.08
2023-06-11T09:54:28.360Z,2.85
2023-06-11T09:59:31.172Z,3.28
2023-06-11T10:04:32.696Z,3.03
2023-06-11T10:09:44.173Z,3.10
2023-06-11T10:14:56.156Z,2.70
2023-06-11T10:19:57.837Z,3.30
2023-06-11T10:25:08.325Z,2.92
2023-06-11T10:30:26.827Z,2.60
2023-06-11T10:35:35.056Z,2.80
2023-06-11T10:40:38.829Z,2.22
2023-06-11T10:45:42.695Z,2.45
2023-06-11T10:50:46.540Z,2.47
2023-06-11T10:55:51.677Z,2.47
2023-06-11T11:01:01.910Z,2.45
2023-06-11T11:11:14.657Z,2.40
2023-06-11T11:16:16.856Z,2.20
2023-06-11T11:21:29.852Z,2.90
2023-06-11T11:26:42.680Z,2.33
2023-06-11T11:31:47.413Z,2.50
2023-06-11T11:36:51.914Z,2.67
2023-06-11T11:41:55.598Z,2.40
2023-06-11T11:47:04.294Z,2.50
2023-06-11T11:52:18.741Z,2.15
2023-06-11T11:57:26.772Z,2.10
2023-06-11T12:02:33.688Z,2.13
2023-06-11T12:07:37.627Z,2.72
2023-06-11T12:12:39.140Z,2.20
2023-06-11T12:17:45.194Z,2.40
2023-06-11T12:22:49.756Z,2.00
2023-06-11T12:27:53.604Z,2.17
2023-06-11T12:32:57.577Z,2.00
2023-06-11T12:37:59.465Z,2.28
2023-06-11T12:43:08.250Z,2.35
2023-06-11T12:48:12.968Z,2.08
2023-06-11T12:53:14.632Z,1.80
2023-06-11T12:58:28.142Z,1.90
2023-06-11T13:03:30.911Z,1.83
2023-06-11T13:08:43.877Z,2.00
2023-06-11T13:13:51.887Z,2.10
2023-06-11T13:19:00.739Z,1.95
2023-06-11T13:24:04.480Z,1.60
2023-06-11T13:29:10.925Z,1.60
2023-06-11T13:34:12.498Z,1.75
2023-06-11T13:39:18.231Z,1.77
2023-06-11T13:44:26.219Z,1.50
2023-06-11T13:49:30.207Z,1.40
2023-06-11T13:54:37.090Z,1.70
2023-06-11T13:59:41.048Z,1.70
2023-06-11T14:04:46.836Z,1.70
2023-06-11T14:09:54.937Z,1.90
2023-06-11T14:15:02.654Z,1.73
2023-06-11T14:25:12.870Z,1.85
2023-06-11T14:30:18.079Z,1.67
2023-06-11T14:35:22.842Z,1.67
2023-06-11T14:40:25.821Z,1.83
2023-06-11T14:45:30.878Z,1.83
2023-06-11T14:50:37.899Z,1.80
2023-06-11T14:55:41.814Z,1.90
2023-06-11T15:00:47.230Z,1.73
2023-06-11T15:05:57.044Z,1.70
2023-06-11T15:10:58.611Z,1.55
2023-06-11T15:16:02.475Z,1.45
2023-06-11T15:21:09.301Z,1.50
2023-06-11T15:26:13.249Z,1.60
2023-06-11T15:31:23.274Z,1.67
2023-06-11T15:36:27.160Z,1.65
2023-06-11T15:41:31.152Z,1.67
2023-06-11T15:46:33.702Z,1.50
2023-06-11T15:51:41.377Z,1.55
2023-06-11T15:56:48.704Z,1.70
2023-06-11T16:01:56.084Z,1.42
2023-06-11T16:07:07.642Z,1.40
2023-06-11T16:12:11.596Z,1.70
2023-06-11T16:17:13.133Z,1.45
2023-06-11T16:22:24.220Z,1.92
2023-06-11T16:27:28.079Z,1.70
2023-06-11T16:32:35.650Z,1.73
2023-06-11T16:37:41.482Z,2.10
2023-06-11T16:42:45.692Z,2.10
2023-06-11T16:47:49.285Z,2.22
2023-06-11T16:52:56.515Z,2.00
2023-06-11T16:58:06.230Z,2.17
2023-06-11T17:03:10.193Z,2.25
2023-06-11T17:08:13.940Z,2.05
2023-06-11T17:13:23.076Z,2.05
2023-06-11T17:18:30.161Z,2.10
2023-06-11T17:23:41.592Z,2.15
2023-06-11T17:28:45.625Z,1.80
2023-06-11T17:33:49.488Z,1.92
2023-06-11T17:38:55.764Z,1.83
2023-06-11T17:44:07.265Z,2.30
2023-06-11T17:49:12.159Z,2.00
2023-06-11T17:54:13.703Z,2.08
2023-06-11T17:59:21.157Z,1.60
2023-06-11T18:04:23.908Z,2.08
2023-06-11T18:09:27.916Z,1.90
2023-06-11T18:14:32.243Z,2.13
2023-06-11T18:19:37.274Z,2.20
2023-06-11T18:24:46.347Z,2.10
2023-06-11T18:29:52.418Z,2.13
2023-06-11T18:34:56.109Z,2.22
2023-06-11T18:40:00.262Z,2.10
2023-06-11T18:45:04.655Z,2.35
2023-06-11T18:50:07.983Z,2.47
2023-06-11T18:55:10.101Z,2.63
2023-06-11T19:00:12.571Z,2.30
2023-06-11T19:05:15.892Z,2.40
2023-06-11T19:10:17.519Z,2.75
2023-06-11T19:15:22.608Z,2.60
2023-06-11T19:20:27.528Z,2.88
2023-06-11T19:25:40.588Z,2.65
2023-06-11T19:31:00.071Z,2.47
2023-06-11T19:36:07.110Z,2.40
2023-06-11T19:41:15.685Z,2.60
2023-06-11T19:46:27.268Z,2.72
2023-06-11T19:51:34.123Z,2.83
2023-06-11T19:56:38.096Z,2.90
2023-06-11T20:01:46.858Z,2.67
2023-06-11T20:06:58.086Z,2.60
2023-06-11T20:12:12.426Z,3.13
2023-06-11T20:17:17.725Z,2.75
2023-06-11T20:22:23.629Z,3.30
2023-06-11T20:27:27.546Z,2.90
2023-06-11T20:32:44.218Z,2.90
2023-06-11T20:37:57.959Z,2.88
2023-06-11T20:42:59.526Z,3.13
2023-06-11T20:48:03.332Z,3.47
2023-06-11T20:53:16.614Z,3.20
2023-06-11T20:58:29.907Z,3.00
2023-06-11T21:03:37.717Z,3.05
2023-06-11T21:08:41.366Z,3.15
2023-06-11T21:14:08.410Z,2.83
2023-06-11T21:19:19.580Z,3.10
2023-06-11T21:24:21.290Z,3.78
2023-06-11T21:29:28.231Z,3.42
2023-06-11T21:34:34.367Z,3.20
2023-06-11T21:39:45.760Z,3.80
2023-06-11T21:44:47.298Z,3.45
2023-06-11T21:49:48.864Z,3.50
2023-06-11T21:54:53.834Z,3.65
2023-06-11T21:59:57.807Z,3.73
2023-06-11T22:05:10.689Z,4.22
2023-06-11T22:10:19.278Z,3.28
2023-06-11T22:15:20.915Z,3.47
2023-06-11T22:20:26.338Z,3.28
2023-06-11T22:25:30.312Z,3.95
2023-06-11T22:30:38.095Z,3.95
2023-06-11T22:35:51.408Z,3.88
2023-06-11T22:40:52.932Z,4.00
2023-06-11T22:45:54.447Z,4.03
2023-06-11T22:50:58.571Z,4.10
2023-06-11T22:56:07.494Z,3.60
2023-06-11T23:01:09.022Z,3.67
2023-06-11T23:06:14.165Z,3.75
2023-06-11T23:11:19.776Z,4.05
2023-06-11T23:16:21.465Z,4.00
2023-06-11T23:21:27.355Z,4.03
2023-06-11T23:26:29.209Z,3.92
2023-06-11T23:31:36.339Z,4.10
2023-06-11T23:36:42.491Z,3.90
2023-06-11T23:41:46.165Z,3.88
2023-06-11T23:46:51.059Z,4.50
2023-06-11T23:51:56.062Z,3.83
2023-06-11T23:57:04.717Z,4.10
